Airfield :







YOU CAN JOIN US ON...

 
LOGIN :

Register | Disclaimer

   EN    FR    IT 

 









Legend :    VFR   Marginal VFR   IFR   Intensive IFR   Very Intensive IFR
Visi :
Ceiling :
>= 8 km
>= 3000ft
5 to 8 km
1000 to 3000 ft
1500m to 5 km
500 to 1000 ft
800 to 1500m
200 to 500 ft
< 800m
< 200 ft
Symbols :   Thunderstorms  Fog  Heavy snow  Heavy precipitations  Wind > 20 kt






- Airport Elevation : 270 ft
- IATA code : YMX


CYMX - Montreal International Mirabel

CURRENT METAR :
  • 120300Z 26012G21KT 220V280 25SM FEW030 M07/M16 A3024 RMK SC2 SLP248

EXPIRED METARs :
  • 120200Z 27013G28KT 230V290 25SM DRSN FEW020 FEW040 SCT080 M06/M12 A3019 RMK SF1SC1AC1 SLP232
  • 120100Z 25010G18KT 220V280 25SM DRSN FEW015 SCT035 M06/M09 A3015 RMK SF1SC3 SLP218
  • 120030Z 25011G19KT 25SM DRSN FEW035 SCT088 M06/M08 A3013 RMK SC2AC2 SLP211

TAF TAF CYMX
Valid from the 12 at 00:00 until the 13 at 00:00 UTC


112338Z 1200/1224 23010KT P6SM -SHSN BKN040
TEMPO 1200/1201 11/2SM -SHSN OVC020
PROB30 1200/1201 1/2SM SHSN
FM120100 27012G22KT P6SM SCT040
TEMPO 1201/1204 P6SM -SHSN BKN040
FM121000 25007KT P6SM BKN040
FM122000 20005KT P6SM SCT040 BKN160 RMK NXT FCST BY 120600Z



MET'MAP, your aeronautical weather chart ! - Copyright ORBIFLY December 2007 - Disclaimer

ORBIFLY MET'MAP TEAM :

Programming & Development : Alexandra Zaïnal
Concept & original design : Baudouin d'Aumeries
Assistance for programming : Marc-Olivier Méhu
Technical & hardware support : Manuel Goepfert

Contact : metmap@orbifly.com




SOURCES & CREDITS :

   NOAA